createdAt,value
2018-04-13T00:00:22.650Z,13.87
2018-04-13T00:05:21.336Z,13.79
2018-04-13T00:10:21.149Z,13.85
2018-04-13T00:15:20.720Z,13.71
2018-04-13T00:20:15.438Z,13.74
2018-04-13T00:25:15.962Z,13.68
2018-04-13T00:30:11.868Z,13.65
2018-04-13T00:35:08.608Z,13.56
2018-04-13T00:40:04.379Z,13.62
2018-04-13T00:45:04.707Z,13.60
2018-04-13T00:50:03.450Z,13.57
2018-04-13T00:55:00.442Z,13.50
2018-04-13T01:00:00.418Z,13.42
2018-04-13T01:04:59.657Z,13.20
2018-04-13T01:09:58.204Z,13.28
2018-04-13T01:14:53.999Z,13.27
2018-04-13T01:19:49.468Z,13.30
2018-04-13T01:24:45.321Z,13.15
2018-04-13T01:29:46.812Z,13.35
2018-04-13T01:34:42.693Z,13.41
2018-04-13T01:39:42.119Z,13.28
2018-04-13T01:44:41.154Z,13.33
2018-04-13T01:49:40.398Z,13.04
2018-04-13T01:54:39.740Z,13.04
2018-04-13T01:59:35.920Z,13.04
2018-04-13T02:04:31.094Z,12.97
2018-04-13T02:09:30.901Z,12.86
2018-04-13T02:14:29.830Z,12.93
2018-04-13T02:19:29.637Z,12.83
2018-04-13T02:24:24.399Z,12.62
2018-04-13T02:29:20.890Z,12.57
2018-04-13T02:34:21.237Z,12.58
2018-04-13T02:39:20.158Z,12.60
2018-04-13T02:44:20.692Z,12.54
2018-04-13T02:49:19.386Z,12.40
2018-04-13T02:54:14.420Z,12.39
2018-04-13T02:59:15.338Z,12.09
2018-04-13T03:04:09.949Z,12.18
2018-04-13T03:09:05.787Z,12.15
2018-04-13T03:14:01.218Z,12.06
2018-04-13T03:19:01.111Z,12.20
2018-04-13T03:23:56.006Z,12.09
2018-04-13T03:28:52.935Z,12.18
2018-04-13T03:33:48.932Z,12.15
2018-04-13T03:38:49.780Z,12.36
2018-04-13T03:43:44.743Z,12.55
2018-04-13T03:48:42.110Z,12.50
2018-04-13T03:53:38.351Z,12.27
2018-04-13T03:58:39.060Z,12.13
2018-04-13T04:03:34.197Z,11.91
2018-04-13T04:08:30.142Z,11.86
2018-04-13T04:13:27.047Z,12.03
2018-04-13T04:18:22.802Z,12.39
2018-04-13T04:23:22.727Z,12.39
2018-04-13T04:28:19.080Z,12.28
2018-04-13T04:33:15.642Z,12.28
2018-04-13T04:38:12.579Z,12.12
2018-04-13T04:43:08.109Z,12.13
2018-04-13T04:48:09.027Z,12.21
2018-04-13T04:53:07.817Z,12.25
2018-04-13T04:58:03.007Z,12.45
2018-04-13T05:03:03.838Z,12.40
2018-04-13T05:08:03.511Z,12.45
2018-04-13T05:13:03.680Z,12.42
2018-04-13T05:18:02.409Z,12.40
2018-04-13T05:23:02.165Z,12.43
2018-04-13T05:28:01.164Z,12.46
2018-04-13T05:33:00.918Z,12.53
2018-04-13T05:37:56.810Z,12.58
2018-04-13T05:42:56.821Z,12.54
2018-04-13T05:47:52.061Z,12.67
2018-04-13T05:52:53.556Z,12.78
2018-04-13T05:57:53.058Z,12.93
2018-04-13T06:02:47.950Z,13.04
2018-04-13T06:07:45.399Z,13.33
2018-04-13T06:12:41.769Z,13.46
2018-04-13T06:17:42.744Z,13.77
2018-04-13T06:22:41.833Z,13.77
2018-04-13T06:27:40.872Z,13.85
2018-04-13T06:32:40.726Z,14.11
2018-04-13T06:37:37.471Z,14.32
2018-04-13T06:42:36.935Z,14.12
2018-04-13T06:47:36.968Z,14.14
2018-04-13T06:52:37.547Z,14.26
2018-04-13T06:57:37.184Z,14.33
2018-04-13T07:02:40.062Z,14.58
2018-04-13T07:07:40.749Z,14.78
2018-04-13T07:12:38.712Z,14.86
2018-04-13T07:17:39.540Z,15.07
2018-04-13T07:22:38.623Z,15.31
2018-04-13T07:27:39.900Z,15.47
2018-04-13T07:32:39.593Z,15.70
2018-04-13T07:42:42.236Z,15.67
2018-04-13T07:47:42.233Z,15.75
2018-04-13T07:52:41.158Z,15.76
2018-04-13T07:57:40.905Z,15.83
2018-04-13T08:12:46.592Z,15.98
2018-04-13T08:17:44.517Z,16.13
2018-04-13T08:32:54.353Z,16.21
2018-04-13T08:37:54.520Z,16.20
2018-04-13T08:47:59.342Z,16.38
2018-04-13T08:53:00.083Z,16.31
2018-04-13T08:58:03.994Z,16.50
2018-04-13T09:08:08.024Z,16.53
2018-04-13T09:13:09.613Z,16.64
2018-04-13T09:18:10.732Z,16.71
2018-04-13T09:23:09.918Z,16.96
2018-04-13T09:33:13.856Z,17.70
2018-04-13T09:38:16.643Z,17.64
2018-04-13T09:43:12.157Z,17.67
2018-04-13T09:48:12.402Z,18.00
2018-04-13T09:53:13.176Z,18.31
2018-04-13T09:58:09.472Z,18.23
2018-04-13T10:03:10.285Z,18.58
2018-04-13T10:08:05.607Z,18.66
2018-04-13T10:13:05.506Z,18.65
2018-04-13T10:18:01.279Z,18.37
2018-04-13T10:23:00.858Z,18.29
2018-04-13T10:27:55.804Z,18.20
2018-04-13T10:32:51.586Z,18.16
2018-04-13T10:37:48.601Z,18.19
2018-04-13T10:42:50.316Z,18.19
2018-04-13T10:47:46.201Z,18.15
2018-04-13T10:52:47.787Z,18.37
2018-04-13T10:57:43.725Z,18.45
2018-04-13T11:02:39.953Z,18.52
2018-04-13T11:07:37.142Z,18.63
2018-04-13T11:12:41.106Z,18.65
2018-04-13T11:17:38.038Z,18.58
2018-04-13T11:22:37.653Z,18.52
2018-04-13T11:27:36.885Z,18.38
2018-04-13T11:32:38.077Z,18.38
2018-04-13T11:37:33.048Z,18.38
2018-04-13T11:42:34.852Z,18.49
2018-04-13T11:47:29.481Z,18.43
2018-04-13T11:52:25.514Z,18.44
2018-04-13T11:57:22.783Z,18.22
2018-04-13T12:02:22.445Z,17.97
2018-04-13T12:07:24.891Z,17.78
2018-04-13T12:12:23.565Z,17.59
2018-04-13T12:17:22.111Z,17.48
2018-04-13T12:22:22.474Z,17.38
2018-04-13T12:27:18.365Z,17.20
2018-04-13T12:32:19.962Z,17.09
2018-04-13T12:37:19.783Z,17.06
2018-04-13T12:42:20.012Z,17.04
2018-04-13T12:47:18.672Z,16.78
2018-04-13T12:52:17.585Z,16.75
2018-04-13T12:57:18.559Z,16.72
2018-04-13T13:02:17.431Z,16.76
2018-04-13T13:07:17.648Z,16.72
2018-04-13T13:12:17.548Z,16.86
2018-04-13T13:17:17.736Z,16.81
2018-04-13T13:22:18.238Z,16.87
2018-04-13T13:27:19.344Z,17.05
2018-04-13T13:32:20.144Z,16.99
2018-04-13T13:37:18.955Z,17.09
2018-04-13T13:42:14.252Z,16.99
2018-04-13T13:47:11.154Z,17.26
2018-04-13T13:52:06.731Z,17.15
2018-04-13T13:57:03.133Z,17.09
2018-04-13T14:01:59.171Z,16.94
2018-04-13T14:06:55.948Z,16.89
2018-04-13T14:11:51.670Z,16.89
2018-04-13T14:16:49.090Z,16.87
2018-04-13T14:21:49.831Z,16.89
2018-04-13T14:26:49.580Z,16.84
2018-04-13T14:31:48.099Z,16.68
2018-04-13T14:36:45.386Z,16.78
2018-04-13T14:41:45.735Z,16.61
2018-04-13T14:46:42.655Z,16.78
2018-04-13T14:51:38.836Z,16.91
2018-04-13T14:56:40.534Z,16.89
2018-04-13T15:01:35.616Z,16.72
2018-04-13T15:06:35.387Z,16.54
2018-04-13T15:11:32.534Z,16.53
2018-04-13T15:16:28.304Z,16.51
2018-04-13T15:21:25.236Z,16.53
2018-04-13T15:26:20.644Z,16.56
2018-04-13T15:31:17.565Z,16.56
2018-04-13T15:36:19.198Z,16.61
2018-04-13T15:41:14.828Z,16.61
2018-04-13T15:46:10.482Z,16.41
2018-04-13T15:51:10.310Z,16.42
2018-04-13T15:56:05.130Z,16.23
2018-04-13T16:01:00.738Z,16.02
2018-04-13T16:05:57.446Z,16.00
2018-04-13T16:10:58.329Z,16.05
2018-04-13T16:15:54.423Z,16.08
2018-04-13T16:20:50.191Z,15.84
2018-04-13T16:25:50.209Z,15.84
2018-04-13T16:30:45.203Z,15.82
2018-04-13T16:35:46.252Z,15.75
2018-04-13T16:40:41.005Z,15.70
2018-04-13T16:45:37.897Z,15.72
2018-04-13T16:50:34.600Z,15.64
2018-04-13T16:55:31.648Z,15.77
2018-04-13T17:00:32.182Z,15.62
2018-04-13T17:05:31.745Z,15.44
2018-04-13T17:10:28.674Z,15.49
2018-04-13T17:15:28.219Z,15.31
2018-04-13T17:20:23.477Z,15.36
2018-04-13T17:25:23.601Z,15.35
2018-04-13T17:30:18.695Z,15.37
2018-04-13T17:35:15.876Z,15.28
2018-04-13T17:40:11.535Z,15.36
2018-04-13T17:45:07.161Z,15.29
2018-04-13T17:50:04.085Z,15.27
2018-04-13T17:55:05.990Z,15.28
2018-04-13T18:00:01.561Z,15.11
2018-04-13T18:05:01.088Z,15.27
2018-04-13T18:09:59.935Z,15.10
2018-04-13T18:14:56.367Z,15.14
2018-04-13T18:19:52.060Z,15.09
2018-04-13T18:24:47.917Z,14.99
2018-04-13T18:29:43.895Z,15.00
2018-04-13T18:34:39.714Z,14.91
2018-04-13T18:39:40.541Z,14.91
2018-04-13T18:44:36.263Z,14.88
2018-04-13T18:49:31.684Z,14.92
2018-04-13T18:54:27.016Z,14.85
2018-04-13T18:59:26.884Z,14.86
2018-04-13T19:04:22.229Z,14.84
2018-04-13T19:09:19.497Z,14.88
2018-04-13T19:14:15.019Z,14.79
2018-04-13T19:19:12.030Z,14.66
2018-04-13T19:24:12.518Z,14.72
2018-04-13T19:29:08.236Z,14.66
2018-04-13T19:34:03.599Z,14.69
2018-04-13T19:39:00.456Z,14.65
2018-04-13T19:43:56.980Z,14.62
2018-04-13T19:48:53.855Z,14.55
2018-04-13T19:53:50.839Z,14.54
2018-04-13T19:58:51.336Z,14.48
2018-04-13T20:03:47.269Z,14.51
2018-04-13T20:08:42.830Z,14.47
2018-04-13T20:13:39.738Z,14.25
2018-04-13T20:18:39.343Z,14.33
2018-04-13T20:23:39.057Z,14.28
2018-04-13T20:28:37.900Z,14.25
2018-04-13T20:33:34.218Z,14.11
2018-04-13T20:38:30.529Z,13.99
2018-04-13T20:43:27.141Z,13.90
2018-04-13T20:48:22.527Z,13.97
2018-04-13T20:53:18.759Z,13.96
2018-04-13T20:58:18.986Z,13.79
2018-04-13T21:03:18.827Z,13.78
2018-04-13T21:08:15.121Z,13.79
2018-04-13T21:13:14.495Z,13.71
2018-04-13T21:18:13.463Z,13.67
2018-04-13T21:23:13.769Z,13.68
2018-04-13T21:28:13.545Z,13.65
2018-04-13T21:33:09.297Z,13.68
2018-04-13T21:38:05.797Z,13.71
2018-04-13T21:43:02.711Z,13.59
2018-04-13T21:47:58.284Z,13.72
2018-04-13T21:52:58.563Z,13.56
2018-04-13T21:57:53.781Z,13.53
2018-04-13T22:02:50.580Z,13.52
2018-04-13T22:07:45.941Z,13.63
2018-04-13T22:12:42.072Z,13.49
2018-04-13T22:17:37.877Z,13.23
2018-04-13T22:22:37.771Z,13.33
2018-04-13T22:27:33.025Z,13.25
2018-04-13T22:32:32.463Z,13.25
2018-04-13T22:37:31.250Z,13.23
2018-04-13T22:42:32.764Z,13.20
2018-04-13T22:47:27.479Z,13.13
2018-04-13T22:52:23.254Z,13.15
2018-04-13T22:57:18.995Z,13.01
2018-04-13T23:02:19.837Z,12.91
2018-04-13T23:07:16.219Z,12.98
2018-04-13T23:12:11.637Z,12.93
2018-04-13T23:17:07.722Z,12.80
2018-04-13T23:22:03.585Z,12.70
2018-04-13T23:27:03.249Z,12.58
2018-04-13T23:32:02.364Z,12.70
2018-04-13T23:36:58.309Z,12.67
2018-04-13T23:41:57.750Z,12.68
2018-04-13T23:46:53.765Z,12.55
2018-04-13T23:51:54.163Z,12.53
2018-04-13T23:56:48.777Z,12.40
